Weather at Mont Joli Airport

Public forecast

Using degrees Celsius for public forecast. Weather courtesy of forecast.io.

Current aviation weather report (METAR) for Mont Joli Airport

Retrieved 2021/03/09 06:00 UTC (8 minutes ago):

CYYY 090600Z 16008KT 30SM SKC M10/M15 A3015 RMK SLP216

Aviation forecast (TAF) for Mont Joli Airport

Retrieved 2021-03-09 02:00 UTC (4 hours ago):

TAF CYYY 090138Z 0902/0914 21008KT P6SM SKC FM091200 19008KT 5SM -SN SCT020 OVC080 RMK NXT FCST BY 090800Z